createdAt,value
2019-02-06T00:00:05.620Z,0.00
2019-02-06T00:01:05.610Z,0.00
2019-02-06T00:02:05.602Z,0.00
2019-02-06T00:03:05.588Z,0.00
2019-02-06T00:04:05.578Z,0.00
2019-02-06T00:05:13.928Z,0.00
2019-02-06T00:06:06.562Z,0.00
2019-02-06T00:07:05.552Z,0.00
2019-02-06T00:08:05.534Z,0.00
2019-02-06T00:09:05.523Z,0.00
2019-02-06T00:10:05.517Z,0.00
2019-02-06T00:11:05.520Z,0.00
2019-02-06T00:12:05.546Z,0.00
2019-02-06T00:13:05.498Z,0.00
2019-02-06T00:14:05.506Z,0.00
2019-02-06T00:15:05.462Z,0.00
2019-02-06T00:16:05.454Z,0.00
2019-02-06T00:17:05.446Z,0.00
2019-02-06T00:18:05.478Z,0.00
2019-02-06T00:19:05.418Z,0.00
2019-02-06T00:20:05.412Z,0.00
2019-02-06T00:21:05.400Z,0.00
2019-02-06T00:22:05.393Z,0.00
2019-02-06T00:23:05.383Z,0.00
2019-02-06T00:24:05.368Z,0.00
2019-02-06T00:25:05.355Z,0.00
2019-02-06T00:26:05.348Z,0.00
2019-02-06T00:27:05.330Z,0.00
2019-02-06T00:28:05.328Z,0.00
2019-02-06T00:29:05.322Z,0.00
2019-02-06T00:30:05.317Z,0.00
2019-02-06T00:31:05.335Z,0.00
2019-02-06T00:32:05.280Z,0.00
2019-02-06T00:33:05.271Z,0.00
2019-02-06T00:34:05.262Z,0.00
2019-02-06T00:35:05.260Z,0.00
2019-02-06T00:36:05.270Z,0.00
2019-02-06T00:37:05.232Z,0.00
2019-02-06T00:38:05.656Z,0.00
2019-02-06T00:39:05.212Z,0.00
2019-02-06T00:40:05.199Z,0.00
2019-02-06T00:41:05.208Z,0.00
2019-02-06T00:42:05.176Z,0.00
2019-02-06T00:43:05.166Z,0.00
2019-02-06T00:44:05.154Z,0.00
2019-02-06T00:45:05.175Z,0.00
2019-02-06T00:46:05.140Z,0.00
2019-02-06T00:47:05.142Z,0.00
2019-02-06T00:48:05.114Z,0.00
2019-02-06T00:49:05.102Z,0.00
2019-02-06T00:50:05.094Z,0.00
2019-02-06T00:51:05.102Z,0.00
2019-02-06T00:52:05.080Z,0.00
2019-02-06T00:53:05.080Z,0.00
2019-02-06T00:54:05.050Z,0.00
2019-02-06T00:55:05.038Z,0.00
2019-02-06T00:56:05.042Z,0.00
2019-02-06T00:57:05.014Z,0.00
2019-02-06T00:58:05.020Z,0.00
2019-02-06T00:59:05.024Z,0.00
2019-02-06T01:00:04.983Z,0.00
2019-02-06T01:01:04.974Z,0.00
2019-02-06T01:02:04.969Z,0.00
2019-02-06T01:03:04.950Z,0.00
2019-02-06T01:04:04.964Z,0.00
2019-02-06T01:05:04.931Z,0.00
2019-02-06T01:06:04.926Z,0.00
2019-02-06T01:07:04.912Z,0.00
2019-02-06T01:08:04.904Z,0.00
2019-02-06T01:09:04.892Z,0.00
2019-02-06T01:10:04.899Z,0.00
2019-02-06T01:11:04.913Z,0.00
2019-02-06T01:12:04.866Z,0.00
2019-02-06T01:13:04.846Z,0.00
2019-02-06T01:14:04.848Z,0.00
2019-02-06T01:15:04.832Z,0.00
2019-02-06T01:16:04.836Z,0.00
2019-02-06T01:17:04.800Z,0.00
2019-02-06T01:18:04.794Z,0.00
2019-02-06T01:19:04.784Z,0.00
2019-02-06T01:20:04.775Z,0.00
2019-02-06T01:21:04.776Z,0.00
2019-02-06T01:22:04.766Z,0.00
2019-02-06T01:23:04.741Z,0.00
2019-02-06T01:24:04.730Z,0.00
2019-02-06T01:25:04.724Z,0.00
2019-02-06T01:26:04.714Z,0.00
2019-02-06T01:27:04.701Z,0.00
2019-02-06T01:28:04.702Z,0.00
2019-02-06T01:29:04.682Z,0.00
2019-02-06T01:30:04.664Z,0.00
2019-02-06T01:31:04.652Z,0.00
2019-02-06T01:32:04.652Z,0.00
2019-02-06T01:33:04.646Z,0.00
2019-02-06T01:34:04.654Z,0.00
2019-02-06T01:35:04.618Z,0.00
2019-02-06T01:36:04.598Z,0.00
2019-02-06T01:37:04.589Z,0.00
2019-02-06T01:38:04.595Z,0.00
2019-02-06T01:39:04.586Z,0.00
2019-02-06T01:40:04.570Z,0.00
2019-02-06T01:41:04.548Z,0.00
2019-02-06T01:42:04.538Z,0.00
2019-02-06T01:43:04.533Z,0.00
2019-02-06T01:44:04.520Z,0.00
2019-02-06T01:45:04.520Z,0.00
2019-02-06T01:46:04.761Z,0.00
2019-02-06T01:47:04.488Z,0.00
2019-02-06T01:48:04.480Z,0.00
2019-02-06T01:49:04.474Z,0.00
2019-02-06T01:50:04.476Z,0.00
2019-02-06T01:51:04.447Z,0.00
2019-02-06T01:52:04.434Z,0.00
2019-02-06T01:53:04.425Z,0.00
2019-02-06T01:54:04.411Z,0.00
2019-02-06T01:55:04.405Z,0.00
2019-02-06T01:56:04.408Z,0.00
2019-02-06T01:57:04.390Z,0.00
2019-02-06T01:58:04.368Z,0.00
2019-02-06T01:59:04.354Z,0.00
2019-02-06T02:00:04.344Z,0.00
2019-02-06T02:01:04.352Z,0.00
2019-02-06T02:02:04.323Z,0.00
2019-02-06T02:03:04.323Z,0.00
2019-02-06T02:04:04.305Z,0.00
2019-02-06T02:05:04.298Z,0.00
2019-02-06T02:06:04.289Z,0.00
2019-02-06T02:07:04.276Z,0.00
2019-02-06T02:08:04.261Z,0.00
2019-02-06T02:09:04.248Z,0.00
2019-02-06T02:10:04.247Z,0.00
2019-02-06T02:11:04.228Z,0.00
2019-02-06T02:12:04.221Z,0.00
2019-02-06T02:13:04.217Z,0.00
2019-02-06T02:14:04.198Z,0.00
2019-02-06T02:15:04.192Z,0.00
2019-02-06T02:16:04.174Z,0.00
2019-02-06T02:17:04.169Z,0.00
2019-02-06T02:18:04.157Z,0.00
2019-02-06T02:19:04.165Z,0.00
2019-02-06T02:20:04.129Z,0.00
2019-02-06T02:21:04.124Z,0.00
2019-02-06T02:22:04.112Z,0.00
2019-02-06T02:23:04.105Z,0.00
2019-02-06T02:24:04.094Z,0.00
2019-02-06T02:25:04.090Z,0.00
2019-02-06T02:26:04.068Z,0.00
2019-02-06T02:27:04.058Z,0.00
2019-02-06T02:28:04.058Z,0.00
2019-02-06T02:29:04.043Z,0.00
2019-02-06T02:30:04.035Z,0.00
2019-02-06T02:31:04.015Z,0.00
2019-02-06T02:32:04.010Z,0.00
2019-02-06T02:33:04.000Z,0.00
2019-02-06T02:34:03.985Z,0.00
2019-02-06T02:35:03.978Z,0.00
2019-02-06T02:36:15.160Z,0.00
2019-02-06T02:37:04.954Z,0.00
2019-02-06T02:38:03.948Z,0.00
2019-02-06T02:39:03.946Z,0.00
2019-02-06T02:40:03.926Z,0.00
2019-02-06T02:41:03.912Z,0.00
2019-02-06T02:42:03.898Z,0.00
2019-02-06T02:43:03.891Z,0.00
2019-02-06T02:44:03.881Z,0.00
2019-02-06T02:45:03.884Z,0.00
2019-02-06T02:46:03.856Z,0.00
2019-02-06T02:47:03.852Z,0.00
2019-02-06T02:48:03.838Z,0.00
2019-02-06T02:49:03.824Z,0.00
2019-02-06T02:50:03.821Z,0.00
2019-02-06T02:51:03.806Z,0.00
2019-02-06T02:52:03.800Z,0.00
2019-02-06T02:53:03.794Z,0.00
2019-02-06T02:54:03.772Z,0.00
2019-02-06T02:55:03.764Z,0.00
2019-02-06T02:56:03.754Z,0.00
2019-02-06T02:57:03.749Z,0.00
2019-02-06T02:58:03.731Z,0.00
2019-02-06T02:59:03.720Z,0.00
2019-02-06T03:00:03.710Z,0.00
2019-02-06T03:01:03.700Z,0.00
2019-02-06T03:02:03.692Z,0.00
2019-02-06T03:03:03.680Z,0.00
2019-02-06T03:04:03.670Z,0.00
2019-02-06T03:05:03.654Z,0.00
2019-02-06T03:06:03.653Z,0.00
2019-02-06T03:07:03.648Z,0.00
2019-02-06T03:08:03.636Z,0.00
2019-02-06T03:09:03.614Z,0.00
2019-02-06T03:10:03.610Z,0.00
2019-02-06T03:11:03.596Z,0.00
2019-02-06T03:12:03.585Z,0.00
2019-02-06T03:13:03.574Z,0.00
2019-02-06T03:14:03.558Z,0.00
2019-02-06T03:15:03.553Z,0.00
2019-02-06T03:16:03.545Z,0.00
2019-02-06T03:17:03.599Z,0.00
2019-02-06T03:18:03.522Z,0.00
2019-02-06T03:19:03.506Z,0.00
2019-02-06T03:20:03.501Z,0.00
2019-02-06T03:21:03.510Z,0.00
2019-02-06T03:22:03.475Z,0.00
2019-02-06T03:23:03.463Z,0.00
2019-02-06T03:24:03.456Z,0.00
2019-02-06T03:25:03.444Z,0.00
2019-02-06T03:26:03.436Z,0.00
2019-02-06T03:27:03.428Z,0.00
2019-02-06T03:28:03.416Z,0.00
2019-02-06T03:29:03.400Z,0.00
2019-02-06T03:30:03.410Z,0.00
2019-02-06T03:31:03.377Z,0.00
2019-02-06T03:32:03.373Z,0.00
2019-02-06T03:33:03.386Z,0.00
2019-02-06T03:34:05.015Z,0.00
2019-02-06T03:35:03.332Z,0.00
2019-02-06T03:36:03.332Z,0.00
2019-02-06T03:37:03.315Z,0.00
2019-02-06T03:38:03.308Z,0.00
2019-02-06T03:39:03.291Z,0.00
2019-02-06T03:40:03.286Z,0.00
2019-02-06T03:41:03.272Z,0.00
2019-02-06T03:42:03.266Z,0.00
2019-02-06T03:43:03.260Z,0.00
2019-02-06T03:44:03.261Z,0.00
2019-02-06T03:45:03.227Z,0.00
2019-02-06T03:46:03.223Z,0.00
2019-02-06T03:47:03.209Z,0.00
2019-02-06T03:48:03.214Z,0.00
2019-02-06T03:49:03.195Z,0.00
2019-02-06T03:50:03.198Z,0.00
2019-02-06T03:51:03.167Z,0.00
2019-02-06T03:52:03.164Z,0.00
2019-02-06T03:53:03.144Z,0.00
2019-02-06T03:54:03.136Z,0.00
2019-02-06T03:55:03.127Z,0.00
2019-02-06T03:56:03.129Z,0.00
2019-02-06T03:57:03.102Z,0.00
2019-02-06T03:58:03.098Z,0.00
2019-02-06T03:59:03.082Z,0.00
2019-02-06T04:00:03.069Z,0.00
2019-02-06T04:01:03.062Z,0.00
2019-02-06T04:02:03.052Z,0.00
2019-02-06T04:03:03.046Z,0.00
2019-02-06T04:04:03.040Z,0.00
2019-02-06T04:05:03.027Z,0.00
2019-02-06T04:06:03.011Z,0.00
2019-02-06T04:07:03.002Z,0.00
2019-02-06T04:08:02.990Z,0.00
2019-02-06T04:09:02.972Z,0.00
2019-02-06T04:10:02.966Z,0.00
2019-02-06T04:11:02.954Z,0.00
2019-02-06T04:12:02.949Z,0.00
2019-02-06T04:13:02.942Z,0.00
2019-02-06T04:14:02.927Z,0.00
2019-02-06T04:15:02.917Z,0.00
2019-02-06T04:16:02.904Z,0.00
2019-02-06T04:17:02.889Z,0.00
2019-02-06T04:18:02.892Z,0.00
2019-02-06T04:19:02.880Z,0.00
2019-02-06T04:20:02.857Z,0.00
2019-02-06T04:21:02.846Z,0.00
2019-02-06T04:22:02.842Z,0.00
2019-02-06T04:23:02.822Z,0.00
2019-02-06T04:24:02.824Z,0.00
2019-02-06T04:25:02.813Z,0.00
2019-02-06T04:26:02.798Z,0.00
2019-02-06T04:27:02.794Z,0.00
2019-02-06T04:28:02.791Z,0.00
2019-02-06T04:29:02.770Z,0.00
2019-02-06T04:30:02.760Z,0.00
2019-02-06T04:31:02.772Z,0.00
2019-02-06T04:32:02.731Z,0.00
2019-02-06T04:33:02.725Z,0.00
2019-02-06T04:34:02.710Z,0.00
2019-02-06T04:35:02.710Z,0.00
2019-02-06T04:36:02.702Z,0.00
2019-02-06T04:37:06.648Z,0.00
2019-02-06T04:38:02.678Z,0.00
2019-02-06T04:39:02.655Z,0.00
2019-02-06T04:40:02.645Z,0.00
2019-02-06T04:41:02.640Z,0.00
2019-02-06T04:42:02.624Z,0.00
2019-02-06T04:43:02.627Z,0.00
2019-02-06T04:44:02.603Z,0.00
2019-02-06T04:45:02.603Z,0.00
2019-02-06T04:46:02.580Z,0.00
2019-02-06T04:47:02.570Z,0.00
2019-02-06T04:48:02.558Z,0.00
2019-02-06T04:49:02.544Z,0.00
2019-02-06T04:50:02.539Z,0.00
2019-02-06T04:51:02.524Z,0.00
2019-02-06T04:52:02.517Z,0.00
2019-02-06T04:53:02.501Z,0.00
2019-02-06T04:54:02.496Z,0.00
2019-02-06T04:55:02.486Z,0.00
2019-02-06T04:56:02.477Z,0.00
2019-02-06T04:57:02.462Z,0.00
2019-02-06T04:58:02.465Z,0.00
2019-02-06T04:59:02.444Z,0.00
2019-02-06T05:00:02.440Z,0.00
2019-02-06T05:01:02.416Z,0.00
2019-02-06T05:02:02.419Z,0.00
2019-02-06T05:03:02.400Z,0.00
2019-02-06T05:04:02.396Z,0.00
2019-02-06T05:05:02.379Z,0.00
2019-02-06T05:06:02.370Z,0.00
2019-02-06T05:07:02.354Z,0.00
2019-02-06T05:08:02.342Z,0.00
2019-02-06T05:09:02.349Z,0.00
2019-02-06T05:10:02.331Z,0.00
2019-02-06T05:11:02.310Z,0.00
2019-02-06T05:12:02.307Z,0.00
2019-02-06T05:13:02.291Z,0.00
2019-02-06T05:14:02.278Z,0.00
2019-02-06T05:15:02.284Z,0.00
2019-02-06T05:16:02.256Z,0.00
2019-02-06T05:17:02.249Z,0.00
2019-02-06T05:18:02.235Z,0.00
2019-02-06T05:19:02.234Z,0.00
2019-02-06T05:20:02.220Z,0.00
2019-02-06T05:21:02.214Z,0.00
2019-02-06T05:22:02.196Z,0.00
2019-02-06T05:23:02.188Z,0.00
2019-02-06T05:24:02.171Z,0.00
2019-02-06T05:25:02.163Z,0.00
2019-02-06T05:26:02.159Z,0.00
2019-02-06T05:27:02.136Z,0.00
2019-02-06T05:28:02.133Z,0.00
2019-02-06T05:29:02.118Z,0.00
2019-02-06T05:30:02.144Z,0.00
2019-02-06T05:31:02.105Z,0.00
2019-02-06T05:32:02.096Z,0.00
2019-02-06T05:33:02.076Z,0.00
2019-02-06T05:34:02.063Z,0.00
2019-02-06T05:35:02.058Z,0.00
2019-02-06T05:36:02.051Z,0.00
2019-02-06T05:37:02.041Z,0.00
2019-02-06T05:38:02.034Z,0.00
2019-02-06T05:39:02.008Z,0.00
2019-02-06T05:40:02.001Z,0.00
2019-02-06T05:41:01.991Z,0.00
2019-02-06T05:42:01.980Z,0.00
2019-02-06T05:43:01.966Z,0.00
2019-02-06T05:44:01.965Z,0.00
2019-02-06T05:45:01.944Z,0.00
2019-02-06T05:46:01.932Z,0.00
2019-02-06T05:47:01.933Z,0.00
2019-02-06T05:48:01.916Z,0.00
2019-02-06T05:49:01.913Z,0.00
2019-02-06T05:50:01.899Z,0.00
2019-02-06T05:51:01.886Z,0.00
2019-02-06T05:52:01.870Z,0.00
2019-02-06T05:53:01.870Z,0.00
2019-02-06T05:54:01.850Z,0.00
2019-02-06T05:55:04.491Z,0.00
2019-02-06T05:56:01.834Z,0.00
2019-02-06T05:57:01.820Z,0.00
2019-02-06T05:58:01.812Z,0.00
2019-02-06T05:59:01.798Z,0.00
2019-02-06T06:00:01.796Z,0.00
2019-02-06T06:01:01.782Z,0.00
2019-02-06T06:02:01.773Z,0.00
2019-02-06T06:03:01.759Z,0.00
2019-02-06T06:04:01.750Z,4.00
2019-02-06T06:05:01.741Z,0.00
2019-02-06T06:06:01.732Z,0.00
2019-02-06T06:07:01.714Z,4.00
2019-02-06T06:08:01.702Z,4.00
2019-02-06T06:09:01.688Z,0.00
2019-02-06T06:10:01.691Z,4.00
2019-02-06T06:11:01.681Z,4.00
2019-02-06T06:12:01.662Z,4.00
2019-02-06T06:13:01.650Z,8.00
2019-02-06T06:14:01.679Z,4.00
2019-02-06T06:15:01.653Z,8.00
2019-02-06T06:16:01.662Z,8.00
2019-02-06T06:17:01.611Z,8.00
2019-02-06T06:18:01.602Z,12.00
2019-02-06T06:19:01.589Z,16.00
2019-02-06T06:20:01.573Z,20.00
2019-02-06T06:21:01.569Z,20.00
2019-02-06T06:22:01.553Z,28.00
2019-02-06T06:23:01.815Z,28.00
2019-02-06T06:24:01.539Z,32.00
2019-02-06T06:25:01.527Z,36.00
2019-02-06T06:26:01.515Z,44.00
2019-02-06T06:27:01.502Z,48.00
2019-02-06T06:28:01.490Z,60.00
2019-02-06T06:29:01.490Z,68.00
2019-02-06T06:30:01.476Z,76.00
2019-02-06T06:31:01.465Z,84.00
2019-02-06T06:32:01.454Z,96.00
2019-02-06T06:33:01.438Z,104.00
2019-02-06T06:34:01.427Z,116.00
2019-02-06T06:35:01.419Z,132.00
2019-02-06T06:36:01.414Z,140.00
2019-02-06T06:37:01.399Z,156.00
2019-02-06T06:38:02.617Z,168.00
2019-02-06T06:39:01.384Z,184.00
2019-02-06T06:40:01.369Z,204.00
2019-02-06T06:41:01.358Z,216.00
2019-02-06T06:42:01.354Z,236.00
2019-02-06T06:43:01.464Z,256.00
2019-02-06T06:44:01.328Z,280.00
2019-02-06T06:45:01.309Z,304.00
2019-02-06T06:46:01.304Z,324.00
2019-02-06T06:47:01.288Z,352.00
2019-02-06T06:48:01.283Z,388.00
2019-02-06T06:49:01.270Z,416.00
2019-02-06T06:50:01.270Z,452.00
2019-02-06T06:51:01.244Z,488.00
2019-02-06T06:52:03.940Z,524.00
2019-02-06T06:53:01.231Z,568.00
2019-02-06T06:54:01.216Z,608.00
2019-02-06T06:55:01.210Z,648.00
2019-02-06T06:56:01.196Z,696.00
2019-02-06T06:57:01.342Z,748.00
2019-02-06T06:58:01.243Z,804.00
2019-02-06T06:59:01.166Z,860.00
2019-02-06T07:00:01.150Z,916.00
2019-02-06T07:01:01.142Z,936.00
2019-02-06T07:02:01.137Z,988.00
2019-02-06T07:03:01.128Z,1092.00
2019-02-06T07:04:01.114Z,1208.00
2019-02-06T07:05:01.099Z,1296.00
2019-02-06T07:06:01.087Z,1360.00
2019-02-06T07:07:01.070Z,1396.00
2019-02-06T07:08:09.215Z,1428.00
2019-02-06T07:09:02.060Z,1484.00
2019-02-06T07:10:01.049Z,1540.00
2019-02-06T07:11:01.032Z,1652.00
2019-02-06T07:12:01.028Z,1836.00
2019-02-06T07:13:01.013Z,2000.00
2019-02-06T07:14:01.002Z,2072.00
2019-02-06T07:15:01.001Z,2096.00
2019-02-06T07:16:00.987Z,2192.00
2019-02-06T07:17:00.971Z,2332.00
2019-02-06T07:18:01.473Z,2448.00
2019-02-06T07:19:01.090Z,2564.00
2019-02-06T07:20:01.098Z,2692.00
2019-02-06T07:21:01.755Z,2820.00
2019-02-06T07:22:00.919Z,2940.00
2019-02-06T07:23:00.910Z,3040.00
2019-02-06T07:24:00.896Z,3144.00
2019-02-06T07:25:00.917Z,3276.00
2019-02-06T07:26:00.876Z,3468.00
2019-02-06T07:27:00.864Z,3632.00
2019-02-06T07:28:00.865Z,3800.00
2019-02-06T07:29:00.851Z,3924.00
2019-02-06T07:30:00.834Z,3840.00
2019-02-06T07:31:00.821Z,3536.00
2019-02-06T07:32:00.896Z,2888.00
2019-02-06T07:33:00.804Z,2572.00
2019-02-06T07:34:00.792Z,2632.00
2019-02-06T07:35:00.789Z,2636.00
2019-02-06T07:36:00.774Z,2596.00
2019-02-06T07:37:00.760Z,2576.00
2019-02-06T07:38:00.758Z,2580.00
2019-02-06T07:39:00.748Z,2664.00
2019-02-06T07:40:00.829Z,2732.00
2019-02-06T07:41:00.716Z,2832.00
2019-02-06T07:42:00.708Z,2936.00
2019-02-06T07:43:00.696Z,3116.00
2019-02-06T07:44:00.678Z,3324.00
2019-02-06T07:45:00.691Z,3208.00
2019-02-06T07:46:00.663Z,3116.00
2019-02-06T07:47:00.649Z,3184.00
2019-02-06T07:48:00.642Z,3400.00
2019-02-06T07:49:00.630Z,3776.00
2019-02-06T07:50:00.619Z,4400.00
2019-02-06T07:51:00.624Z,5420.00
2019-02-06T07:52:00.599Z,6260.00
2019-02-06T07:53:00.588Z,6648.00
2019-02-06T07:54:00.591Z,7768.00
2019-02-06T07:55:00.580Z,8264.00
2019-02-06T07:56:00.560Z,10384.00
2019-02-06T07:57:00.543Z,12756.00
2019-02-06T07:58:00.532Z,17504.00
2019-02-06T07:59:00.936Z,24512.00
2019-02-06T08:00:00.518Z,32160.00
2019-02-06T08:01:00.539Z,29888.00
2019-02-06T08:02:00.496Z,30176.00
2019-02-06T08:03:00.941Z,26912.00
2019-02-06T08:04:00.478Z,25472.00
2019-02-06T08:05:00.453Z,32032.00
2019-02-06T08:06:00.448Z,30560.00
2019-02-06T08:07:00.432Z,38112.00
2019-02-06T08:08:00.823Z,33664.00
2019-02-06T08:09:00.411Z,37216.00
2019-02-06T08:10:00.411Z,43008.00
2019-02-06T08:11:02.907Z,43424.00
2019-02-06T08:12:00.387Z,42176.00
2019-02-06T08:13:00.371Z,39296.00
2019-02-06T08:14:00.367Z,36768.00
2019-02-06T08:15:00.377Z,30112.00
2019-02-06T08:16:00.358Z,27776.00
2019-02-06T08:17:00.334Z,28128.00
2019-02-06T08:18:00.317Z,20416.00
2019-02-06T08:19:00.304Z,23648.00
2019-02-06T08:20:00.294Z,23680.00
2019-02-06T08:21:00.282Z,19872.00
2019-02-06T08:22:00.269Z,20864.00
2019-02-06T08:23:00.329Z,19072.00
2019-02-06T08:24:00.247Z,17536.00
2019-02-06T08:25:00.325Z,16768.00
2019-02-06T08:26:00.227Z,14944.00
2019-02-06T08:27:00.228Z,12880.00
2019-02-06T08:28:00.208Z,11780.00
2019-02-06T08:29:00.199Z,11564.00
2019-02-06T08:30:00.327Z,10732.00
2019-02-06T08:31:00.173Z,10328.00
2019-02-06T08:32:00.180Z,10548.00
2019-02-06T08:33:00.200Z,10600.00
2019-02-06T08:34:00.149Z,10444.00
2019-02-06T08:35:00.348Z,9744.00
2019-02-06T08:36:00.123Z,10228.00
2019-02-06T08:37:00.116Z,10388.00
2019-02-06T08:38:00.115Z,10828.00
2019-02-06T08:39:00.090Z,10496.00
2019-02-06T08:40:00.327Z,10680.00
2019-02-06T08:41:00.064Z,10948.00
2019-02-06T08:42:00.137Z,10884.00
2019-02-06T08:43:00.044Z,10932.00
2019-02-06T08:44:01.842Z,11088.00
2019-02-06T08:45:00.046Z,11724.00
2019-02-06T08:46:00.021Z,12196.00
2019-02-06T08:46:59.998Z,13540.00
2019-02-06T08:47:59.987Z,17120.00
2019-02-06T08:48:59.978Z,24512.00
2019-02-06T08:49:59.972Z,30912.00
2019-02-06T08:51:00.124Z,31936.00
2019-02-06T08:51:59.990Z,41472.00
2019-02-06T08:52:59.930Z,59296.00
2019-02-06T08:53:59.922Z,59840.00
2019-02-06T08:54:59.914Z,62400.00
2019-02-06T08:55:59.914Z,68000.00
2019-02-06T08:56:59.901Z,70592.00
2019-02-06T08:57:59.874Z,67584.00
2019-02-06T08:58:59.871Z,70240.00
2019-02-06T08:59:59.858Z,73728.00
2019-02-06T09:00:59.844Z,68896.00
2019-02-06T09:01:59.854Z,75168.00
2019-02-06T09:02:59.824Z,72992.00
2019-02-06T09:03:59.814Z,74816.00
2019-02-06T09:04:59.923Z,76832.00
2019-02-06T09:05:59.791Z,74304.00
2019-02-06T09:06:59.789Z,77440.00
2019-02-06T09:07:59.770Z,78720.00
2019-02-06T09:09:00.209Z,79552.00
2019-02-06T09:09:59.746Z,81184.00
2019-02-06T09:10:59.740Z,80320.00
2019-02-06T09:11:59.740Z,76928.00
2019-02-06T09:12:59.732Z,75616.00
2019-02-06T09:13:59.716Z,77344.00
2019-02-06T09:14:59.695Z,74112.00
2019-02-06T09:15:59.686Z,75008.00
2019-02-06T09:16:59.669Z,74368.00
2019-02-06T09:17:59.700Z,73952.00
2019-02-06T09:18:59.670Z,72064.00
2019-02-06T09:19:59.654Z,72352.00
2019-02-06T09:20:59.644Z,64832.00
2019-02-06T09:21:59.630Z,67424.00
2019-02-06T09:22:59.658Z,70624.00
2019-02-06T09:23:59.615Z,68704.00
2019-02-06T09:24:59.584Z,74528.00
2019-02-06T09:25:59.610Z,73184.00
2019-02-06T09:26:59.567Z,72032.00
2019-02-06T09:27:59.552Z,68608.00
2019-02-06T09:28:59.545Z,71584.00
2019-02-06T09:29:59.554Z,70944.00
2019-02-06T09:30:59.533Z,64448.00
2019-02-06T09:31:59.595Z,65568.00
2019-02-06T09:32:59.506Z,66976.00
2019-02-06T09:33:59.488Z,60832.00
2019-02-06T09:34:59.481Z,60608.00
2019-02-06T09:35:59.477Z,59840.00
2019-02-06T09:36:59.456Z,56000.00
2019-02-06T09:37:59.443Z,59648.00
2019-02-06T09:39:10.876Z,56064.00
2019-02-06T09:40:00.427Z,48096.00
2019-02-06T09:40:59.417Z,52096.00
2019-02-06T09:41:59.426Z,68640.00
2019-02-06T09:42:59.389Z,70112.00
2019-02-06T09:43:59.439Z,64160.00
2019-02-06T09:44:59.393Z,59264.00
2019-02-06T09:45:59.363Z,67808.00
2019-02-06T09:46:59.365Z,58784.00
2019-02-06T09:47:59.346Z,54432.00
2019-02-06T09:48:59.326Z,38208.00
2019-02-06T09:49:59.318Z,24960.00
2019-02-06T09:50:59.302Z,21952.00
2019-02-06T09:51:59.300Z,31520.00
2019-02-06T09:52:59.293Z,29760.00
2019-02-06T09:53:59.307Z,24320.00
2019-02-06T09:54:59.260Z,31808.00
2019-02-06T09:55:59.248Z,33664.00
2019-02-06T09:56:59.246Z,26752.00
2019-02-06T09:57:59.232Z,27904.00
2019-02-06T09:58:59.290Z,20672.00
2019-02-06T09:59:59.236Z,15192.00
2019-02-06T10:00:59.208Z,16256.00
2019-02-06T10:01:59.185Z,12212.00
2019-02-06T10:02:59.173Z,12416.00
2019-02-06T10:03:59.168Z,11500.00
2019-02-06T10:04:59.171Z,11496.00
2019-02-06T10:05:59.144Z,12464.00
2019-02-06T10:06:59.130Z,13124.00
2019-02-06T10:07:59.118Z,13832.00
2019-02-06T10:08:59.103Z,13980.00
2019-02-06T10:09:59.097Z,17504.00
2019-02-06T10:10:59.113Z,18112.00
2019-02-06T10:11:59.076Z,16320.00
2019-02-06T10:12:59.064Z,18080.00
2019-02-06T10:13:59.073Z,18976.00
2019-02-06T10:14:59.046Z,21088.00
2019-02-06T10:15:59.042Z,25152.00
2019-02-06T10:16:59.026Z,22240.00
2019-02-06T10:17:59.016Z,18368.00
2019-02-06T10:18:59.001Z,15788.00
2019-02-06T10:19:58.991Z,15480.00
2019-02-06T10:20:59.052Z,15464.00
2019-02-06T10:21:59.008Z,15624.00
2019-02-06T10:22:58.971Z,15284.00
2019-02-06T10:23:59.000Z,14660.00
2019-02-06T10:24:59.124Z,14576.00
2019-02-06T10:25:59.079Z,14888.00
2019-02-06T10:26:58.917Z,15204.00
2019-02-06T10:27:58.933Z,15132.00
2019-02-06T10:28:58.890Z,19232.00
2019-02-06T10:29:58.883Z,29504.00
2019-02-06T10:30:58.887Z,44160.00
2019-02-06T10:31:58.863Z,53888.00
2019-02-06T10:32:58.859Z,52512.00
2019-02-06T10:33:58.836Z,51552.00
2019-02-06T10:34:58.823Z,39712.00
2019-02-06T10:35:58.814Z,34816.00
2019-02-06T10:36:58.803Z,29760.00
2019-02-06T10:37:58.797Z,16544.00
2019-02-06T10:38:58.796Z,18752.00
2019-02-06T10:39:58.875Z,28576.00
2019-02-06T10:40:58.760Z,39424.00
2019-02-06T10:41:58.752Z,23936.00
2019-02-06T10:42:58.842Z,17856.00
2019-02-06T10:43:58.758Z,16128.00
2019-02-06T10:44:58.747Z,3552.00
2019-02-06T10:45:58.708Z,26432.00
2019-02-06T10:46:58.723Z,29952.00
2019-02-06T10:47:58.682Z,17568.00
2019-02-06T10:48:58.681Z,15836.00
2019-02-06T10:49:58.667Z,12760.00
2019-02-06T10:50:58.659Z,12536.00
2019-02-06T10:51:58.643Z,12648.00
2019-02-06T10:52:58.632Z,12336.00
2019-02-06T10:53:58.619Z,12908.00
2019-02-06T10:54:58.612Z,11656.00
2019-02-06T10:55:58.598Z,11940.00
2019-02-06T10:56:58.593Z,11652.00
2019-02-06T10:57:58.574Z,12636.00
2019-02-06T10:58:58.572Z,11532.00
2019-02-06T10:59:58.557Z,12148.00
2019-02-06T11:00:58.559Z,11572.00
2019-02-06T11:01:58.539Z,12252.00
2019-02-06T11:02:58.571Z,10944.00
2019-02-06T11:03:58.505Z,12032.00
2019-02-06T11:04:58.503Z,11968.00
2019-02-06T11:05:58.519Z,11460.00
2019-02-06T11:06:58.473Z,10228.00
2019-02-06T11:07:58.467Z,11000.00
2019-02-06T11:08:58.455Z,10472.00
2019-02-06T11:09:58.484Z,10144.00
2019-02-06T11:10:58.433Z,10756.00
2019-02-06T11:11:58.432Z,10876.00
2019-02-06T11:12:58.461Z,10272.00
2019-02-06T11:13:58.415Z,10028.00
2019-02-06T11:14:58.418Z,9724.00
2019-02-06T11:15:58.403Z,9696.00
2019-02-06T11:16:58.399Z,9964.00
2019-02-06T11:17:58.365Z,10540.00
2019-02-06T11:18:58.342Z,9812.00
2019-02-06T11:19:58.347Z,9724.00
2019-02-06T11:20:58.320Z,10868.00
2019-02-06T11:21:58.314Z,10712.00
2019-02-06T11:22:58.307Z,10664.00
2019-02-06T11:23:58.344Z,9636.00
2019-02-06T11:24:58.281Z,9584.00
2019-02-06T11:25:58.274Z,9864.00
2019-02-06T11:26:58.268Z,10344.00
2019-02-06T11:27:58.246Z,10316.00
2019-02-06T11:28:58.245Z,10200.00
2019-02-06T11:29:58.231Z,10876.00
2019-02-06T11:30:58.219Z,10744.00
2019-02-06T11:31:58.203Z,10424.00
2019-02-06T11:32:58.199Z,9804.00
2019-02-06T11:33:58.188Z,9472.00
2019-02-06T11:34:58.178Z,9244.00
2019-02-06T11:35:58.159Z,9264.00
2019-02-06T11:36:58.147Z,8836.00
2019-02-06T11:37:58.133Z,9252.00
2019-02-06T11:38:58.128Z,8976.00
2019-02-06T11:39:58.394Z,9028.00
2019-02-06T11:40:58.105Z,8772.00
2019-02-06T11:41:58.093Z,8640.00
2019-02-06T11:42:58.395Z,8588.00
2019-02-06T11:43:58.076Z,8724.00
2019-02-06T11:44:58.066Z,8392.00
2019-02-06T11:45:58.104Z,8160.00
2019-02-06T11:46:58.040Z,7840.00
2019-02-06T11:47:58.056Z,7588.00
2019-02-06T11:48:58.024Z,7272.00
2019-02-06T11:49:58.019Z,6972.00
2019-02-06T11:50:58.003Z,6744.00
2019-02-06T11:51:58.005Z,6596.00
2019-02-06T11:52:57.979Z,6448.00
2019-02-06T11:53:57.995Z,6380.00
2019-02-06T11:54:57.960Z,6408.00
2019-02-06T11:55:57.952Z,6328.00
2019-02-06T11:56:57.945Z,6264.00
2019-02-06T11:57:57.927Z,6228.00
2019-02-06T11:58:57.918Z,6240.00
2019-02-06T11:59:57.903Z,6460.00
2019-02-06T12:00:57.895Z,6472.00
2019-02-06T12:01:57.884Z,6576.00
2019-02-06T12:02:57.878Z,6600.00
2019-02-06T12:03:57.895Z,6456.00
2019-02-06T12:04:57.849Z,6296.00
2019-02-06T12:05:57.846Z,6236.00
2019-02-06T12:06:57.821Z,6256.00
2019-02-06T12:07:57.825Z,6292.00
2019-02-06T12:08:57.816Z,6204.00
2019-02-06T12:10:08.998Z,6248.00
2019-02-06T12:10:58.786Z,6188.00
2019-02-06T12:11:57.772Z,6008.00
2019-02-06T12:12:57.761Z,5604.00
2019-02-06T12:13:57.753Z,5412.00
2019-02-06T12:14:57.735Z,5396.00
2019-02-06T12:15:57.722Z,5456.00
2019-02-06T12:16:57.713Z,5520.00
2019-02-06T12:17:57.713Z,5596.00
2019-02-06T12:18:57.713Z,5720.00
2019-02-06T12:19:57.693Z,5776.00
2019-02-06T12:20:57.670Z,5696.00
2019-02-06T12:21:57.664Z,5588.00
2019-02-06T12:22:57.659Z,5632.00
2019-02-06T12:23:57.638Z,5580.00
2019-02-06T12:24:57.634Z,5532.00
2019-02-06T12:25:57.617Z,5548.00
2019-02-06T12:26:57.614Z,5500.00
2019-02-06T12:27:57.589Z,5572.00
2019-02-06T12:28:57.583Z,5556.00
2019-02-06T12:29:57.585Z,5520.00
2019-02-06T12:30:57.590Z,5596.00
2019-02-06T12:31:57.555Z,5616.00
2019-02-06T12:32:57.547Z,5520.00
2019-02-06T12:33:57.555Z,5444.00
2019-02-06T12:34:57.520Z,5352.00